Time;durP1;ratioP1;P1;durP2;ratioP2;P2;SDS_P1;SDS_P2;PMS_P1;PMS_P2;Temp;Humidity;BMP_temperature;BMP_pressure;BME280_temperature;BME280_humidity;BME280_pressure;Samples;Min_cycle;Max_cycle;Signal;HPM_P1;HPM_P2
2021/03/01 00:01:09;;;;;;;10.93;5.47;;;6.90;61.10;;;;;;1743269;82;21153;-72
2021/03/01 00:03:38;;;;;;;10.58;5.33;;;6.90;60.30;;;;;;1743180;82;21170;-72
2021/03/01 00:06:06;;;;;;;9.95;5.00;;;6.90;60.40;;;;;;1742936;82;21383;-71
2021/03/01 00:08:34;;;;;;;9.53;4.92;;;6.90;60.10;;;;;;1743383;82;21138;-71
2021/03/01 00:11:03;;;;;;;11.75;5.25;;;6.90;59.70;;;;;;1743154;82;21154;-71
2021/03/01 00:13:30;;;;;;;11.55;5.58;;;6.80;60.10;;;;;;1742993;82;21146;-71
2021/03/01 00:15:59;;;;;;;10.65;4.90;;;6.80;60.10;;;;;;1742952;82;21293;-70
2021/03/01 00:18:27;;;;;;;9.73;5.10;;;6.80;60.80;;;;;;1743244;82;21581;-71
2021/03/01 00:20:55;;;;;;;9.25;4.95;;;6.90;59.90;;;;;;1742978;82;21316;-70
2021/03/01 00:23:23;;;;;;;11.88;5.22;;;6.80;60.00;;;;;;1743139;82;21720;-70
2021/03/01 00:25:51;;;;;;;10.60;5.15;;;6.90;59.70;;;;;;1742992;82;21300;-70
2021/03/01 00:28:19;;;;;;;11.12;4.90;;;6.90;59.90;;;;;;1743144;82;21155;-71
2021/03/01 00:30:47;;;;;;;10.03;5.20;;;6.90;59.70;;;;;;1743075;82;21300;-71
2021/03/01 00:33:15;;;;;;;10.30;4.78;;;7.00;59.90;;;;;;1743113;82;21321;-70
2021/03/01 00:35:43;;;;;;;13.32;4.85;;;7.00;60.30;;;;;;1742992;82;21304;-71
2021/03/01 00:38:12;;;;;;;9.65;4.70;;;6.90;60.60;;;;;;1743163;82;21296;-71
2021/03/01 00:40:41;;;;;;;10.95;4.78;;;7.00;60.60;;;;;;1742974;82;21305;-71
2021/03/01 00:43:09;;;;;;;11.33;5.05;;;7.00;61.60;;;;;;1743024;82;21301;-71
2021/03/01 00:45:37;;;;;;;8.73;4.75;;;7.00;63.10;;;;;;1742970;82;21292;-71
2021/03/01 00:48:07;;;;;;;11.38;4.92;;;6.90;61.60;;;;;;1743169;82;21716;-71
2021/03/01 00:50:35;;;;;;;7.40;4.05;;;6.90;62.80;;;;;;1743036;82;21739;-70
2021/03/01 00:53:03;;;;;;;8.93;4.45;;;6.90;63.00;;;;;;1743047;82;21705;-70
2021/03/01 00:55:33;;;;;;;9.60;5.25;;;7.00;61.80;;;;;;1743167;82;21127;-70
2021/03/01 00:58:01;;;;;;;9.33;5.28;;;6.90;60.40;;;;;;1743054;82;21289;-70
2021/03/01 01:00:29;;;;;;;10.88;5.60;;;7.20;60.20;;;;;;1742947;82;21154;-70
2021/03/01 01:03:00;;;;;;;10.40;5.83;;;7.20;60.50;;;;;;1742775;82;21147;-71
2021/03/01 01:05:33;;;;;;;12.65;6.30;;;7.10;60.50;;;;;;1742181;82;21296;-72
2021/03/01 01:08:01;;;;;;;11.48;6.03;;;7.20;60.90;;;;;;1745282;81;21296;-72
2021/03/01 01:10:29;;;;;;;12.03;6.95;;;7.30;61.60;;;;;;1745852;82;21301;-72
2021/03/01 01:12:58;;;;;;;15.50;7.05;;;7.30;61.90;;;;;;1745847;81;21328;-70
2021/03/01 01:15:27;;;;;;;14.23;6.97;;;7.30;62.30;;;;;;1745921;81;21739;-71
2021/03/01 01:17:55;;;;;;;13.90;7.30;;;7.20;62.70;;;;;;1746121;81;21732;-70
2021/03/01 01:20:23;;;;;;;16.45;7.83;;;7.20;62.80;;;;;;1745931;81;21719;-70
2021/03/01 01:22:51;;;;;;;15.70;7.05;;;7.20;62.80;;;;;;1745840;81;21308;-70
2021/03/01 01:25:20;;;;;;;14.10;7.70;;;7.10;63.20;;;;;;1745878;81;21751;-70
2021/03/01 01:27:48;;;;;;;14.68;7.33;;;7.00;63.50;;;;;;1746023;82;21683;-72
2021/03/01 01:30:20;;;;;;;14.30;7.55;;;7.00;64.30;;;;;;1745810;81;21150;-71
2021/03/01 01:32:51;;;;;;;14.63;7.47;;;7.10;64.60;;;;;;1746099;82;21273;-71
2021/03/01 01:35:19;;;;;;;14.13;7.70;;;7.20;64.70;;;;;;1745805;81;21173;-69
2021/03/01 01:37:48;;;;;;;17.27;8.90;;;7.20;64.80;;;;;;1745834;81;21190;-70
2021/03/01 01:40:21;;;;;;;13.90;7.67;;;7.20;65.00;;;;;;1745930;81;21731;-70
2021/03/01 01:42:51;;;;;;;14.90;7.65;;;7.10;65.50;;;;;;1745867;82;21323;-70
2021/03/01 01:45:23;;;;;;;17.12;9.50;;;7.20;65.70;;;;;;1745991;81;21317;-70
2021/03/01 01:47:53;;;;;;;15.48;8.33;;;7.20;65.40;;;;;;1745837;81;21115;-70
2021/03/01 01:50:25;;;;;;;14.35;8.28;;;7.20;65.60;;;;;;1745813;82;21316;-70
2021/03/01 01:52:55;;;;;;;16.02;8.60;;;7.30;65.40;;;;;;1745837;81;21300;-70
2021/03/01 01:55:28;;;;;;;16.27;8.13;;;7.30;65.10;;;;;;1745845;81;21273;-70
2021/03/01 01:57:56;;;;;;;19.23;9.53;;;7.20;65.30;;;;;;1745838;82;21308;-71
2021/03/01 02:00:45;;;;;;;19.45;8.93;;;7.20;65.50;;;;;;1746087;81;21277;-70
2021/03/01 02:03:34;;;;;;;17.55;8.55;;;7.20;65.40;;;;;;1744968;82;21123;-71
2021/03/01 02:06:45;;;;;;;18.45;9.43;;;7.30;65.30;;;;;;1745799;81;21178;-71
2021/03/01 02:09:44;;;;;;;20.65;10.03;;;7.30;65.40;;;;;;1743374;82;21159;-71
2021/03/01 02:12:26;;;;;;;17.12;8.83;;;7.10;65.50;;;;;;1745934;82;21300;-72
2021/03/01 02:15:27;;;;;;;18.52;8.53;;;7.10;66.00;;;;;;1745021;82;21142;-71
2021/03/01 02:17:55;;;;;;;18.55;9.73;;;7.10;65.90;;;;;;1745936;82;21143;-72
2021/03/01 02:20:23;;;;;;;16.15;8.75;;;7.10;65.90;;;;;;1745799;82;21300;-71
2021/03/01 02:22:52;;;;;;;17.82;8.55;;;7.10;66.00;;;;;;1745808;81;21170;-72
2021/03/01 02:25:24;;;;;;;18.77;9.63;;;7.10;66.70;;;;;;1745842;82;21327;-72
2021/03/01 02:28:02;;;;;;;17.73;8.23;;;7.00;66.00;;;;;;1745845;81;21312;-71
2021/03/01 02:30:39;;;;;;;17.30;8.38;;;7.10;66.40;;;;;;1745812;82;21312;-71
2021/03/01 02:33:24;;;;;;;19.02;8.80;;;7.10;66.40;;;;;;1745911;82;21292;-72
2021/03/01 02:36:01;;;;;;;18.87;9.00;;;7.10;66.60;;;;;;1745801;81;21292;-72
2021/03/01 02:38:31;;;;;;;19.90;8.95;;;7.10;66.90;;;;;;1745523;82;21309;-72
2021/03/01 02:41:00;;;;;;;18.42;8.80;;;7.20;67.50;;;;;;1745963;81;21295;-72
2021/03/01 02:43:35;;;;;;;18.48;8.65;;;7.20;67.40;;;;;;1746138;82;21572;-72
2021/03/01 02:46:04;;;;;;;18.12;8.38;;;7.20;68.00;;;;;;1745969;82;21301;-72
2021/03/01 02:48:35;;;;;;;17.25;8.50;;;7.20;68.10;;;;;;1745947;81;21297;-71
2021/03/01 02:51:07;;;;;;;19.62;8.98;;;7.20;68.50;;;;;;1746081;81;21638;-71
2021/03/01 02:53:39;;;;;;;18.90;9.30;;;7.20;69.50;;;;;;1746354;82;21154;-72
2021/03/01 02:56:08;;;;;;;18.02;9.15;;;7.10;70.10;;;;;;1745968;81;21301;-71
2021/03/01 02:58:40;;;;;;;22.25;11.40;;;7.10;71.40;;;;;;1746051;81;21324;-72
2021/03/01 03:01:11;;;;;;;20.80;10.15;;;7.00;72.60;;;;;;1746034;81;21593;-70
2021/03/01 03:03:42;;;;;;;22.62;8.68;;;6.80;75.50;;;;;;1745939;81;21320;-70
2021/03/01 03:06:17;;;;;;;20.05;10.13;;;6.80;76.10;;;;;;1745940;81;21329;-70
2021/03/01 03:08:47;;;;;;;21.17;10.20;;;6.90;77.20;;;;;;1743615;81;21162;-70
2021/03/01 03:11:19;;;;;;;19.75;9.45;;;6.70;77.80;;;;;;1743039;82;21292;-70
2021/03/01 03:13:49;;;;;;;19.73;9.93;;;6.80;79.20;;;;;;1743156;82;21313;-70
2021/03/01 03:16:21;;;;;;;19.60;9.33;;;6.70;80.50;;;;;;1743702;82;21158;-70
2021/03/01 03:18:59;;;;;;;22.15;10.10;;;6.60;81.40;;;;;;1743154;82;21596;-72
2021/03/01 03:21:27;;;;;;;23.47;11.95;;;6.60;82.70;;;;;;1743023;82;21261;-71
2021/03/01 03:23:56;;;;;;;23.20;11.25;;;6.50;83.70;;;;;;1742998;82;21290;-70
2021/03/01 03:26:29;;;;;;;18.50;9.08;;;6.50;86.10;;;;;;1737071;82;21162;-71
2021/03/01 03:28:57;;;;;;;19.30;10.03;;;6.40;87.00;;;;;;1743053;82;21179;-71
2021/03/01 03:31:25;;;;;;;24.32;10.48;;;6.20;88.40;;;;;;1743064;82;21321;-71
2021/03/01 03:33:54;;;;;;;20.92;9.83;;;6.30;90.40;;;;;;1743052;82;21332;-71
2021/03/01 03:36:27;;;;;;;23.77;10.53;;;6.30;91.60;;;;;;1743043;82;21281;-71
2021/03/01 03:39:12;;;;;;;21.17;9.85;;;6.10;92.50;;;;;;1743050;82;21304;-71
2021/03/01 03:41:42;;;;;;;24.27;10.10;;;6.20;93.40;;;;;;1743253;82;21280;-71
2021/03/01 03:44:15;;;;;;;20.68;10.55;;;6.30;93.40;;;;;;1743066;82;21320;-71
2021/03/01 03:46:43;;;;;;;23.22;11.10;;;6.30;94.10;;;;;;1743016;82;21278;-71
2021/03/01 03:49:15;;;;;;;21.70;10.85;;;6.20;93.70;;;;;;1743184;82;21292;-71
2021/03/01 03:51:51;;;;;;;19.80;9.90;;;6.30;93.30;;;;;;1741466;82;21135;-71
2021/03/01 03:54:24;;;;;;;20.30;9.38;;;6.10;94.60;;;;;;1743015;82;21300;-71
2021/03/01 03:56:57;;;;;;;22.05;11.38;;;6.20;94.90;;;;;;1743033;82;21316;-71
2021/03/01 03:59:33;;;;;;;23.07;11.73;;;6.10;94.60;;;;;;1743148;82;21277;-70
2021/03/01 04:02:03;;;;;;;26.23;11.90;;;6.00;96.40;;;;;;1743234;82;21708;-70
2021/03/01 04:04:34;;;;;;;26.65;12.10;;;6.00;97.30;;;;;;1743362;82;21190;-71
2021/03/01 04:07:05;;;;;;;20.20;10.60;;;5.90;98.00;;;;;;1742956;81;21309;-69
2021/03/01 04:09:36;;;;;;;25.48;11.20;;;5.90;97.90;;;;;;1745897;81;21276;-70
2021/03/01 04:12:06;;;;;;;26.17;12.15;;;6.00;98.10;;;;;;1746005;81;21712;-70
2021/03/01 04:14:35;;;;;;;22.87;11.57;;;6.00;98.30;;;;;;1745865;81;21748;-70
2021/03/01 04:17:09;;;;;;;23.18;11.05;;;6.00;98.30;;;;;;1745897;81;21182;-70
2021/03/01 04:19:38;;;;;;;20.97;11.30;;;6.00;98.80;;;;;;1745901;81;21316;-70
2021/03/01 04:22:08;;;;;;;24.47;11.80;;;5.90;98.30;;;;;;1745897;81;21320;-72
2021/03/01 04:24:41;;;;;;;24.55;12.33;;;5.90;98.70;;;;;;1745938;81;21304;-72
2021/03/01 04:27:11;;;;;;;26.93;12.78;;;5.80;98.90;;;;;;1745893;81;21301;-71
2021/03/01 04:29:51;;;;;;;24.37;11.85;;;5.80;99.00;;;;;;1745909;82;21150;-71
2021/03/01 04:32:20;;;;;;;26.37;11.90;;;5.70;99.90;;;;;;1746168;82;21166;-71
2021/03/01 04:34:55;;;;;;;23.95;12.25;;;5.60;99.90;;;;;;1745896;81;21137;-71
2021/03/01 04:37:23;;;;;;;29.63;12.53;;;5.60;99.90;;;;;;1745970;81;21696;-71
2021/03/01 04:39:51;;;;;;;26.23;12.73;;;5.70;99.90;;;;;;1745818;81;21308;-71
2021/03/01 04:42:20;;;;;;;24.23;12.13;;;5.60;99.50;;;;;;1745965;82;21743;-71
2021/03/01 04:44:50;;;;;;;22.50;11.73;;;5.60;99.90;;;;;;1744815;82;21759;-71
2021/03/01 04:47:19;;;;;;;23.62;11.00;;;5.60;99.90;;;;;;1745836;82;21296;-71
2021/03/01 04:49:48;;;;;;;22.82;11.85;;;5.60;99.90;;;;;;1745824;82;21298;-71
2021/03/01 04:52:17;;;;;;;25.00;11.90;;;5.60;99.90;;;;;;1745881;81;21175;-71
2021/03/01 04:54:46;;;;;;;24.60;11.80;;;5.60;99.90;;;;;;1745862;82;21292;-71
2021/03/01 04:57:19;;;;;;;21.70;11.85;;;5.50;99.90;;;;;;1745971;82;21289;-71
2021/03/01 04:59:48;;;;;;;26.90;13.28;;;5.50;99.90;;;;;;1745858;81;21162;-71
2021/03/01 05:02:17;;;;;;;23.83;12.45;;;5.50;99.90;;;;;;1745838;81;21155;-71
2021/03/01 05:04:45;;;;;;;26.85;12.70;;;5.60;99.90;;;;;;1745812;82;21283;-71
2021/03/01 05:07:13;;;;;;;27.20;12.60;;;5.50;99.90;;;;;;1746004;82;21720;-71
2021/03/01 05:09:42;;;;;;;25.62;12.35;;;5.50;99.90;;;;;;1743312;81;21300;-71
2021/03/01 05:12:10;;;;;;;24.45;11.60;;;5.50;99.90;;;;;;1743240;82;21305;-71
2021/03/01 05:14:38;;;;;;;25.08;12.53;;;5.40;99.90;;;;;;1742947;82;21300;-71
2021/03/01 05:17:06;;;;;;;24.50;11.50;;;5.50;99.90;;;;;;1742946;82;21300;-72
2021/03/01 05:19:35;;;;;;;23.45;11.95;;;5.50;99.90;;;;;;1742935;82;21689;-71
2021/03/01 05:22:04;;;;;;;22.20;11.68;;;5.50;99.90;;;;;;1742951;82;21299;-71
2021/03/01 05:24:32;;;;;;;22.48;11.33;;;5.60;99.90;;;;;;1742980;82;21731;-71
2021/03/01 05:27:00;;;;;;;22.05;11.08;;;5.60;99.90;;;;;;1742918;82;21335;-72
2021/03/01 05:29:28;;;;;;;18.23;10.80;;;5.60;99.90;;;;;;1743037;82;21719;-72
2021/03/01 05:31:56;;;;;;;23.35;11.40;;;5.60;99.90;;;;;;1742994;82;21736;-72
2021/03/01 05:34:24;;;;;;;21.48;11.20;;;5.70;99.90;;;;;;1742888;82;21292;-72
2021/03/01 05:36:54;;;;;;;21.02;11.05;;;5.60;99.90;;;;;;1742857;82;21637;-72
2021/03/01 05:39:22;;;;;;;23.50;11.38;;;5.70;99.60;;;;;;1743014;82;21309;-71
2021/03/01 05:41:53;;;;;;;21.55;11.05;;;5.80;99.80;;;;;;1742910;82;21293;-71
2021/03/01 05:44:22;;;;;;;21.80;10.98;;;5.80;99.90;;;;;;1742887;82;21171;-71
2021/03/01 05:46:52;;;;;;;25.60;12.53;;;5.90;99.90;;;;;;1742896;82;21307;-71
2021/03/01 05:49:22;;;;;;;23.10;11.80;;;5.80;99.10;;;;;;1743297;82;21320;-71
2021/03/01 05:51:58;;;;;;;23.60;11.78;;;5.80;99.60;;;;;;1742923;82;21346;-70
2021/03/01 05:54:29;;;;;;;23.52;12.03;;;5.80;99.90;;;;;;1742936;82;21284;-71
2021/03/01 05:56:58;;;;;;;22.20;10.58;;;5.80;99.90;;;;;;1743098;82;21272;-71
2021/03/01 05:59:29;;;;;;;24.27;12.23;;;5.80;99.20;;;;;;1742885;82;21265;-72
2021/03/01 06:01:58;;;;;;;25.85;13.13;;;5.80;99.90;;;;;;1742883;82;21162;-71
2021/03/01 06:04:27;;;;;;;23.55;11.83;;;5.80;99.90;;;;;;1743029;82;21309;-72
2021/03/01 06:06:56;;;;;;;23.73;12.63;;;5.70;99.90;;;;;;1742880;82;21146;-71
2021/03/01 06:09:24;;;;;;;27.37;12.73;;;5.80;99.20;;;;;;1742908;82;21312;-72
2021/03/01 06:11:55;;;;;;;27.02;12.20;;;5.80;99.90;;;;;;1742890;82;21122;-72
2021/03/01 06:14:23;;;;;;;21.68;12.23;;;6.00;98.90;;;;;;1742900;82;21127;-73
2021/03/01 06:17:18;;;;;;;21.10;10.93;;;6.00;97.50;;;;;;1742891;82;21170;-72
2021/03/01 06:19:55;;;;;;;19.87;11.15;;;6.00;97.30;;;;;;1742896;82;21720;-72
2021/03/01 06:22:34;;;;;;;22.15;11.65;;;6.00;97.60;;;;;;1743097;82;21708;-72
2021/03/01 06:25:16;;;;;;;20.67;11.23;;;5.80;96.60;;;;;;1742813;82;21147;-72
2021/03/01 06:27:59;;;;;;;23.47;11.83;;;5.90;97.60;;;;;;1742952;82;21729;-71
2021/03/01 06:30:36;;;;;;;23.18;11.33;;;5.90;98.20;;;;;;1742977;82;21576;-72
2021/03/01 06:33:18;;;;;;;23.67;12.13;;;5.90;96.10;;;;;;1743170;82;21107;-72
2021/03/01 06:35:51;;;;;;;24.20;12.18;;;6.00;96.50;;;;;;1743079;82;21285;-73
2021/03/01 06:38:35;;;;;;;23.65;11.78;;;5.90;97.90;;;;;;1742634;82;21485;-71
2021/03/01 06:41:12;;;;;;;26.17;12.85;;;6.00;98.10;;;;;;1742858;82;21289;-71
2021/03/01 06:43:59;;;;;;;21.97;12.18;;;6.00;97.60;;;;;;1743071;82;21297;-72
2021/03/01 06:46:33;;;;;;;23.10;12.70;;;6.10;97.90;;;;;;1742910;82;21620;-72
2021/03/01 06:49:15;;;;;;;24.12;12.25;;;6.10;97.00;;;;;;1742829;82;21304;-71
2021/03/01 06:51:44;;;;;;;25.68;13.80;;;6.20;96.00;;;;;;1742919;82;21578;-72
2021/03/01 06:54:24;;;;;;;24.43;12.40;;;6.20;96.50;;;;;;1742810;82;21178;-72
2021/03/01 06:56:53;;;;;;;27.90;14.05;;;6.30;96.20;;;;;;1743236;82;21134;-72
2021/03/01 06:59:23;;;;;;;24.05;12.40;;;6.30;95.40;;;;;;1742230;82;21593;-72
2021/03/01 07:01:56;;;;;;;22.55;12.73;;;6.40;95.00;;;;;;1742877;82;21177;-71
2021/03/01 07:04:30;;;;;;;25.57;12.80;;;6.30;95.10;;;;;;1742996;82;21711;-72
2021/03/01 07:07:00;;;;;;;25.00;12.73;;;6.20;94.30;;;;;;1743135;82;21269;-72
2021/03/01 07:09:34;;;;;;;27.90;12.82;;;6.20;95.90;;;;;;1742817;81;21154;-72
2021/03/01 07:12:03;;;;;;;23.12;12.33;;;6.10;95.20;;;;;;1743149;82;21139;-71
2021/03/01 07:14:31;;;;;;;23.57;11.15;;;6.10;96.70;;;;;;1742949;82;21589;-71
2021/03/01 07:17:00;;;;;;;21.95;11.45;;;6.10;96.00;;;;;;1742834;82;21146;-71
2021/03/01 07:19:33;;;;;;;25.12;12.95;;;6.20;96.00;;;;;;1742924;82;22250;-72
2021/03/01 07:22:08;;;;;;;22.87;11.73;;;6.20;94.40;;;;;;1742949;82;21167;-71
2021/03/01 07:24:46;;;;;;;23.60;11.63;;;6.10;95.30;;;;;;1743128;82;21308;-71
2021/03/01 07:27:15;;;;;;;25.62;11.57;;;6.20;94.90;;;;;;1743130;82;21115;-71
2021/03/01 07:29:48;;;;;;;24.02;12.45;;;6.30;94.80;;;;;;1743079;82;21735;-72
2021/03/01 07:32:21;;;;;;;;;;;6.40;93.30;;;;;;1745628;82;21605;-71
2021/03/01 07:34:52;;;;;;;26.10;13.20;;;6.30;93.40;;;;;;1743093;82;20268;-72
2021/03/01 07:37:23;;;;;;;27.75;13.90;;;6.40;93.40;;;;;;1743011;82;21159;-72
2021/03/01 07:39:51;;;;;;;21.95;11.78;;;6.20;93.40;;;;;;1724601;82;21171;-72
2021/03/01 07:42:21;;;;;;;22.45;12.10;;;6.30;93.00;;;;;;1742964;82;21313;-71
2021/03/01 07:44:53;;;;;;;22.50;12.00;;;6.30;94.00;;;;;;1742989;82;21187;-71
2021/03/01 07:47:28;;;;;;;22.00;11.88;;;6.40;93.90;;;;;;1743576;82;21115;-73
2021/03/01 07:49:56;;;;;;;22.17;11.45;;;6.40;93.20;;;;;;1743491;82;21146;-70
2021/03/01 07:52:34;;;;;;;23.50;11.78;;;6.60;91.20;;;;;;1743180;82;21292;-71
2021/03/01 07:55:07;;;;;;;24.10;11.97;;;6.60;91.80;;;;;;1743008;82;21261;-72
2021/03/01 07:57:39;;;;;;;21.68;11.95;;;7.20;91.40;;;;;;1743023;82;21606;-72
2021/03/01 08:00:33;;;;;;;22.98;11.70;;;7.90;86.80;;;;;;1742975;82;21285;-72
2021/03/01 08:03:35;;;;;;;22.13;12.50;;;8.30;83.60;;;;;;1743323;82;21157;-71
2021/03/01 08:06:05;;;;;;;22.52;11.75;;;8.70;80.30;;;;;;1743286;82;21146;-71
2021/03/01 08:08:44;;;;;;;21.17;12.18;;;9.10;78.80;;;;;;1743388;82;21312;-71
2021/03/01 08:11:13;;;;;;;19.10;11.05;;;9.40;74.00;;;;;;1745910;81;21288;-70
2021/03/01 08:13:41;;;;;;;18.30;11.48;;;9.30;75.40;;;;;;1745892;82;21319;-71
2021/03/01 08:16:22;;;;;;;19.82;11.40;;;9.20;75.20;;;;;;1745904;81;21185;-71
2021/03/01 08:18:57;;;;;;;18.60;11.03;;;9.00;77.10;;;;;;1745973;82;21281;-71
2021/03/01 08:21:26;;;;;;;21.40;12.13;;;8.80;78.50;;;;;;1745915;81;21727;-71
2021/03/01 08:23:54;;;;;;;21.02;11.33;;;8.40;78.10;;;;;;1745920;81;21305;-71
2021/03/01 08:26:33;;;;;;;17.70;10.55;;;8.30;79.70;;;;;;1745859;82;21732;-71
2021/03/01 08:29:15;;;;;;;18.15;10.82;;;8.30;79.70;;;;;;1746409;81;21118;-71
2021/03/01 08:31:47;;;;;;;19.70;10.75;;;8.20;80.30;;;;;;1744366;82;21284;-71
2021/03/01 08:34:33;;;;;;;22.07;11.88;;;8.10;81.70;;;;;;1745890;81;21308;-72
2021/03/01 08:37:03;;;;;;;19.73;10.50;;;7.90;81.50;;;;;;1745867;81;21285;-71
2021/03/01 08:39:58;;;;;;;21.45;11.18;;;7.80;83.40;;;;;;1746131;82;21169;-71
2021/03/01 08:42:59;;;;;;;19.82;10.85;;;7.70;83.30;;;;;;1746028;82;21719;-71
2021/03/01 08:45:45;;;;;;;21.10;11.15;;;7.60;84.00;;;;;;1746108;81;21182;-71
2021/03/01 08:48:19;;;;;;;22.73;10.90;;;7.70;85.50;;;;;;1745987;81;21281;-71
2021/03/01 08:50:53;;;;;;;20.17;10.25;;;7.70;84.10;;;;;;1745874;81;21265;-71
2021/03/01 08:53:27;;;;;;;17.98;10.63;;;7.70;83.80;;;;;;1745967;81;21281;-72
2021/03/01 08:55:58;;;;;;;21.07;10.82;;;7.80;83.70;;;;;;1745857;82;21313;-71
2021/03/01 08:58:35;;;;;;;16.57;9.08;;;7.90;83.80;;;;;;1745922;81;21285;-71
2021/03/01 09:01:07;;;;;;;19.75;9.63;;;8.00;82.50;;;;;;1745972;81;21305;-72
2021/03/01 09:03:44;;;;;;;19.55;10.43;;;8.10;81.90;;;;;;1745826;82;21273;-71
2021/03/01 09:06:23;;;;;;;16.30;9.00;;;8.20;81.30;;;;;;1746104;82;21103;-72
2021/03/01 09:08:56;;;;;;;17.17;9.50;;;8.60;79.10;;;;;;1745785;82;21258;-72
2021/03/01 09:11:30;;;;;;;16.95;8.93;;;9.10;78.60;;;;;;1745984;82;21330;-72
2021/03/01 09:14:02;;;;;;;17.48;7.78;;;9.50;75.90;;;;;;1745830;82;21280;-72
2021/03/01 09:16:33;;;;;;;13.43;7.53;;;9.80;73.20;;;;;;1745868;82;21280;-72
2021/03/01 09:19:13;;;;;;;14.47;7.85;;;10.00;70.80;;;;;;1745620;82;21703;-72
2021/03/01 09:21:43;;;;;;;12.58;7.35;;;10.10;71.60;;;;;;1745840;82;21288;-72
2021/03/01 09:24:14;;;;;;;15.13;8.83;;;10.10;68.30;;;;;;1746039;82;21158;-72
2021/03/01 09:26:45;;;;;;;30.72;9.68;;;10.00;68.50;;;;;;1746003;82;21304;-71
2021/03/01 09:29:18;;;;;;;16.48;9.70;;;9.90;69.90;;;;;;1745807;82;21146;-71
2021/03/01 09:31:54;;;;;;;17.37;9.23;;;9.60;70.90;;;;;;1745833;82;21699;-71
2021/03/01 09:34:28;;;;;;;15.30;9.33;;;9.40;71.40;;;;;;1746210;82;21723;-72
2021/03/01 09:36:58;;;;;;;16.07;10.38;;;9.30;71.70;;;;;;1744079;82;21303;-72
2021/03/01 09:39:27;;;;;;;16.40;9.85;;;9.20;72.30;;;;;;1745804;81;21316;-72
2021/03/01 09:41:56;;;;;;;15.53;8.73;;;9.20;73.20;;;;;;1745846;81;21292;-72
2021/03/01 09:44:28;;;;;;;17.90;9.58;;;9.30;73.10;;;;;;1746058;82;21269;-72
2021/03/01 09:46:58;;;;;;;15.83;8.65;;;9.20;72.60;;;;;;1745827;82;21305;-72
2021/03/01 09:49:31;;;;;;;17.25;8.90;;;9.10;73.10;;;;;;1745760;82;21154;-72
2021/03/01 09:51:59;;;;;;;17.75;10.05;;;9.30;74.60;;;;;;1745821;82;21293;-71
2021/03/01 09:54:29;;;;;;;18.20;10.43;;;9.30;74.90;;;;;;1745730;81;21308;-72
2021/03/01 09:57:09;;;;;;;15.65;9.23;;;9.20;73.80;;;;;;1745883;82;21149;-72
2021/03/01 09:59:41;;;;;;;16.12;8.13;;;9.30;73.90;;;;;;1745831;82;21147;-72
2021/03/01 10:02:20;;;;;;;15.90;8.33;;;9.40;73.90;;;;;;1745879;82;21465;-72
2021/03/01 10:04:51;;;;;;;16.65;8.63;;;9.50;72.60;;;;;;1729608;82;21170;-72
2021/03/01 10:07:28;;;;;;;18.48;8.90;;;9.60;75.00;;;;;;1743628;82;21131;-71
2021/03/01 10:09:57;;;;;;;15.45;8.45;;;9.70;71.90;;;;;;1745937;81;21182;-71
2021/03/01 10:12:26;;;;;;;14.90;8.50;;;9.70;70.30;;;;;;1745865;82;21719;-71
2021/03/01 10:14:59;;;;;;;13.05;7.10;;;9.70;69.80;;;;;;1746132;82;21320;-71
2021/03/01 10:17:30;;;;;;;14.30;7.10;;;9.70;68.80;;;;;;1746091;82;21146;-72
2021/03/01 10:20:09;;;;;;;14.45;7.05;;;9.70;68.80;;;;;;1746360;81;21537;-72
2021/03/01 10:23:06;;;;;;;10.25;5.62;;;9.70;68.60;;;;;;1745708;81;21146;-72
2021/03/01 10:25:41;;;;;;;10.18;5.15;;;9.90;67.90;;;;;;1743342;82;21296;-72
2021/03/01 10:28:29;;;;;;;9.28;5.20;;;10.10;65.40;;;;;;1745812;81;21158;-72
2021/03/01 10:31:08;;;;;;;11.85;6.10;;;10.30;65.10;;;;;;1745812;82;21261;-72
2021/03/01 10:34:01;;;;;;;12.00;5.10;;;10.40;64.50;;;;;;1745804;82;21138;-72
2021/03/01 10:36:37;;;;;;;9.28;4.78;;;10.50;60.80;;;;;;1745393;82;21293;-72
2021/03/01 10:39:24;;;;;;;10.10;4.93;;;10.60;61.50;;;;;;1744578;82;21735;-72
2021/03/01 10:41:55;;;;;;;7.67;3.95;;;10.70;59.90;;;;;;1745883;82;21288;-72
2021/03/01 10:44:33;;;;;;;7.28;4.12;;;10.70;58.10;;;;;;1745784;82;21719;-71
2021/03/01 10:47:29;;;;;;;7.78;4.15;;;10.70;58.60;;;;;;1745919;82;21287;-72
2021/03/01 10:50:20;;;;;;;8.80;4.50;;;10.70;58.70;;;;;;1746260;81;21119;-72
2021/03/01 10:52:50;;;;;;;10.90;5.12;;;10.70;58.60;;;;;;1743330;82;21320;-71
2021/03/01 10:55:18;;;;;;;10.43;5.30;;;10.70;60.20;;;;;;1745877;82;21300;-72
2021/03/01 10:57:48;;;;;;;9.78;5.33;;;10.70;60.00;;;;;;1745842;81;21170;-72
2021/03/01 11:00:16;;;;;;;8.13;4.60;;;10.70;59.20;;;;;;1745809;81;21268;-72
2021/03/01 11:02:44;;;;;;;11.40;5.42;;;10.90;59.00;;;;;;1746291;82;21169;-71
2021/03/01 11:05:14;;;;;;;13.88;5.55;;;11.00;58.90;;;;;;1745906;81;21317;-72
2021/03/01 11:07:42;;;;;;;11.25;4.72;;;10.90;59.20;;;;;;1745920;81;21162;-73
2021/03/01 11:10:10;;;;;;;10.23;4.42;;;10.70;58.00;;;;;;1745841;81;21351;-71
2021/03/01 11:12:38;;;;;;;10.18;5.30;;;10.80;58.20;;;;;;1745893;81;21293;-71
2021/03/01 11:15:08;;;;;;;9.03;4.47;;;10.70;58.20;;;;;;1746051;81;21304;-72
2021/03/01 11:17:36;;;;;;;11.50;4.62;;;10.70;60.00;;;;;;1745854;81;21296;-71
2021/03/01 11:20:07;;;;;;;8.75;4.90;;;10.70;57.90;;;;;;1746073;81;21309;-73
2021/03/01 11:22:35;;;;;;;8.60;4.40;;;10.70;57.70;;;;;;1745960;81;21723;-72
2021/03/01 11:25:05;;;;;;;8.45;4.70;;;10.80;58.80;;;;;;1744672;81;21380;-72
2021/03/01 11:27:33;;;;;;;10.78;4.53;;;10.90;57.80;;;;;;1745112;81;21221;-71
2021/03/01 11:30:01;;;;;;;9.28;4.95;;;10.90;58.90;;;;;;1744162;82;21166;-70
2021/03/01 11:32:29;;;;;;;10.82;4.72;;;11.00;58.50;;;;;;1745904;82;21190;-66
2021/03/01 11:34:57;;;;;;;9.98;5.08;;;11.00;57.10;;;;;;1745772;81;21292;-68
2021/03/01 11:37:25;;;;;;;14.95;4.45;;;11.00;58.20;;;;;;1746054;81;21167;-69
2021/03/01 11:39:53;;;;;;;9.00;3.65;;;11.00;56.90;;;;;;1745784;82;21146;-68
2021/03/01 11:42:21;;;;;;;7.42;3.70;;;10.90;56.00;;;;;;1745544;82;21308;-69
2021/03/01 11:44:49;;;;;;;6.22;3.67;;;10.80;56.10;;;;;;1745530;81;21344;-69
2021/03/01 11:47:17;;;;;;;6.10;3.62;;;10.70;55.60;;;;;;1745774;81;21155;-70
2021/03/01 11:49:45;;;;;;;5.47;3.17;;;10.80;55.20;;;;;;1745637;81;21712;-70
2021/03/01 11:52:14;;;;;;;5.30;3.30;;;10.70;53.90;;;;;;1745541;81;21316;-69
2021/03/01 11:54:42;;;;;;;7.03;3.22;;;10.70;53.60;;;;;;1745630;82;21705;-70
2021/03/01 11:57:10;;;;;;;6.33;3.25;;;10.70;55.60;;;;;;1745830;81;21386;-70
2021/03/01 11:59:38;;;;;;;10.98;3.80;;;10.60;55.30;;;;;;1745643;81;21106;-74
2021/03/01 12:02:06;;;;;;;8.03;3.47;;;10.70;56.10;;;;;;1734084;82;21149;-72
2021/03/01 12:04:34;;;;;;;6.60;3.40;;;10.70;56.30;;;;;;1717367;82;21596;-69
2021/03/01 12:07:03;;;;;;;9.00;4.92;;;10.80;55.60;;;;;;1724322;81;21142;-69
2021/03/01 12:09:31;;;;;;;6.97;3.40;;;10.80;56.00;;;;;;1740873;81;21340;-72
2021/03/01 12:12:00;;;;;;;7.60;3.42;;;10.80;56.40;;;;;;1731855;81;21146;-72
2021/03/01 12:14:30;;;;;;;9.45;4.20;;;10.90;55.40;;;;;;1739531;82;21593;-72
2021/03/01 12:16:58;;;;;;;6.62;3.35;;;10.90;55.90;;;;;;1741164;82;21138;-73
2021/03/01 12:19:26;;;;;;;6.83;3.30;;;11.00;55.90;;;;;;1745619;82;21316;-76
2021/03/01 12:21:54;;;;;;;4.72;2.98;;;10.90;54.30;;;;;;1746119;82;21185;-72
2021/03/01 12:24:22;;;;;;;6.03;3.25;;;10.90;54.70;;;;;;1741131;81;21149;-75
2021/03/01 12:26:50;;;;;;;5.45;3.20;;;11.10;55.40;;;;;;1729844;82;21149;-74
2021/03/01 12:29:18;;;;;;;6.70;3.17;;;11.20;55.20;;;;;;1732319;82;21165;-76
2021/03/01 12:31:46;;;;;;;9.15;4.33;;;11.30;54.10;;;;;;1731904;81;21596;-74
2021/03/01 12:34:15;;;;;;;9.90;3.52;;;11.30;53.30;;;;;;1729306;81;21182;-73
2021/03/01 12:36:43;;;;;;;9.05;3.37;;;11.30;54.00;;;;;;1729524;82;21142;-71
2021/03/01 12:39:11;;;;;;;7.15;3.52;;;11.30;53.70;;;;;;1728761;82;21158;-71
2021/03/01 12:41:40;;;;;;;6.65;3.20;;;11.30;54.60;;;;;;1730624;82;21229;-71
2021/03/01 12:44:09;;;;;;;6.37;3.17;;;11.40;53.70;;;;;;1721925;82;21161;-73
2021/03/01 12:46:37;;;;;;;5.75;2.90;;;11.40;53.60;;;;;;1715896;84;21174;-73
2021/03/01 12:49:07;;;;;;;6.75;3.00;;;11.50;53.30;;;;;;1716205;83;21153;-72
2021/03/01 12:51:38;;;;;;;5.10;2.87;;;11.50;52.10;;;;;;1716379;84;21134;-72
2021/03/01 12:54:06;;;;;;;5.42;3.05;;;11.60;52.30;;;;;;1724467;82;21149;-74
2021/03/01 12:56:34;;;;;;;5.97;3.27;;;11.60;52.60;;;;;;1716247;82;21177;-73
2021/03/01 12:59:02;;;;;;;5.17;2.52;;;11.60;53.00;;;;;;1734039;82;21161;-74
2021/03/01 13:01:32;;;;;;;6.72;3.90;;;11.60;53.00;;;;;;1731153;82;21181;-72
2021/03/01 13:04:03;;;;;;;6.87;4.08;;;11.50;53.20;;;;;;1728387;82;21544;-73
2021/03/01 13:06:31;;;;;;;7.97;3.22;;;11.60;53.70;;;;;;1729440;81;21145;-73
2021/03/01 13:08:59;;;;;;;5.80;3.15;;;11.60;53.80;;;;;;1732047;82;21154;-72